Terminal Aerodrome Forecast
Issued by NWS Sioux Falls, SD

Home | Current Version | Previous Version | Text Only | Print | Product List | Glossary On
Versions: 1 2 3 4 5 6 7 8 9 10 11 12 13 14 15 16 17 18 19 20
000
FTUS43 KFSD 230833 AAB
TAFFSD
TAF AMD
KFSD 230833Z 2309/2406 28009KT 4SM BR OVC006
      TEMPO 2309/2313 2SM BR OVC003
     FM231300 29011KT P6SM OVC007
     FM231600 30011KT P6SM OVC011
     FM240200 VRB03KT P6SM BKN008=

USA.gov is the U.S. government's official web portal to all federal, state and local government web resources and services.